Time;durP1;ratioP1;P1;durP2;ratioP2;P2;SDS_P1;SDS_P2;PMS_P1;PMS_P2;Temp;Humidity;BMP_temperature;BMP_pressure;BME280_temperature;BME280_humidity;BME280_pressure;Samples;Min_cycle;Max_cycle;Signal;HPM_P1;HPM_P2
2021/09/17 00:00:30;;;;;;;9.00;7.80;;;19.90;1.00;;;;;;5052423;28;20534;-81
2021/09/17 00:02:57;;;;;;;11.38;8.30;;;20.00;1.00;;;;;;5052385;28;20070;-81
2021/09/17 00:05:23;;;;;;;9.23;8.23;;;20.10;1.00;;;;;;5051891;28;20036;-81
2021/09/17 00:07:49;;;;;;;9.63;8.63;;;20.00;1.00;;;;;;5053783;28;20028;-81
2021/09/17 00:10:16;;;;;;;9.40;8.50;;;19.90;1.00;;;;;;5053222;28;20769;-82
2021/09/17 00:12:43;;;;;;;11.85;8.68;;;19.80;1.00;;;;;;5052512;28;20032;-81
2021/09/17 00:15:10;;;;;;;11.18;9.32;;;19.70;1.00;;;;;;5051906;28;20055;-82
2021/09/17 00:17:36;;;;;;;10.10;8.43;;;19.50;1.00;;;;;;5052245;28;20159;-82
2021/09/17 00:20:08;;;;;;;10.77;8.93;;;19.60;1.00;;;;;;5051802;28;20036;-82
2021/09/17 00:22:34;;;;;;;10.85;9.70;;;19.60;1.00;;;;;;5053568;28;20485;-81
2021/09/17 00:24:59;;;;;;;10.52;9.45;;;19.60;1.00;;;;;;5052407;28;20044;-81
2021/09/17 00:27:25;;;;;;;9.93;8.93;;;19.60;1.00;;;;;;5051922;28;20025;-81
2021/09/17 00:29:50;;;;;;;11.65;9.93;;;19.60;1.00;;;;;;5051898;28;20516;-81
2021/09/17 00:32:16;;;;;;;9.95;8.95;;;19.60;1.00;;;;;;5051987;28;20056;-81
2021/09/17 00:34:42;;;;;;;9.77;8.85;;;19.70;1.00;;;;;;5053855;28;20032;-81
2021/09/17 00:37:08;;;;;;;11.45;9.27;;;19.70;1.00;;;;;;5052099;28;20117;-82
2021/09/17 00:39:34;;;;;;;11.57;8.82;;;19.60;1.00;;;;;;5052017;28;20459;-81
2021/09/17 00:41:59;;;;;;;10.15;9.02;;;19.70;1.00;;;;;;5051635;28;20056;-81
2021/09/17 00:44:27;;;;;;;10.45;9.50;;;19.60;1.00;;;;;;5051751;28;20455;-82
2021/09/17 00:46:54;;;;;;;12.10;9.43;;;19.60;1.00;;;;;;5052573;28;20099;-81
2021/09/17 00:49:20;;;;;;;10.95;9.90;;;19.50;1.00;;;;;;5052631;28;20033;-81
2021/09/17 00:51:47;;;;;;;13.77;9.70;;;19.40;1.00;;;;;;5051935;28;20061;-81
2021/09/17 00:54:13;;;;;;;15.63;10.05;;;19.50;1.00;;;;;;5051562;28;20032;-81
2021/09/17 00:56:39;;;;;;;11.32;9.75;;;19.30;1.00;;;;;;5051424;28;20032;-81
2021/09/17 00:59:05;;;;;;;11.23;10.02;;;19.50;1.00;;;;;;5051432;28;20025;-81
2021/09/17 01:01:30;;;;;;;12.73;9.23;;;19.40;1.00;;;;;;5034003;28;20025;-81
2021/09/17 01:03:56;;;;;;;10.20;9.13;;;19.50;1.00;;;;;;5051370;28;20016;-81
2021/09/17 01:06:22;;;;;;;12.23;9.98;;;19.50;1.00;;;;;;5051174;28;20020;-82
2021/09/17 01:08:47;;;;;;;12.70;10.65;;;19.40;1.00;;;;;;5051768;28;20021;-82
2021/09/17 01:11:15;;;;;;;12.20;10.52;;;19.40;1.00;;;;;;5051440;28;20124;-82
2021/09/17 01:13:41;;;;;;;11.45;10.05;;;19.40;1.00;;;;;;5027759;28;20474;-81
2021/09/17 01:16:06;;;;;;;11.02;9.88;;;19.40;1.00;;;;;;5031086;28;20099;-82
2021/09/17 01:18:32;;;;;;;11.40;10.20;;;19.30;1.00;;;;;;5031439;28;20030;-81
2021/09/17 01:20:59;;;;;;;11.32;9.90;;;19.30;1.00;;;;;;5031205;28;20112;-81
2021/09/17 01:23:25;;;;;;;10.95;9.68;;;19.30;1.00;;;;;;5031399;28;20051;-82
2021/09/17 01:25:51;;;;;;;11.10;9.20;;;19.30;1.00;;;;;;5032524;28;20029;-81
2021/09/17 01:28:25;;;;;;;10.07;9.18;;;19.30;1.00;;;;;;5032195;28;20523;-82
2021/09/17 01:30:51;;;;;;;11.23;10.10;;;19.40;1.00;;;;;;5029194;28;20485;-81
2021/09/17 01:33:17;;;;;;;10.13;9.23;;;19.30;1.00;;;;;;5030773;28;20059;-81
2021/09/17 01:35:43;;;;;;;11.23;9.93;;;19.40;1.00;;;;;;5031221;28;20033;-82
2021/09/17 01:38:09;;;;;;;9.73;8.82;;;19.30;1.00;;;;;;5030597;28;20025;-81
2021/09/17 01:40:34;;;;;;;10.38;9.38;;;19.30;1.00;;;;;;5031853;28;20022;-82
2021/09/17 01:43:00;;;;;;;9.75;8.85;;;19.30;1.00;;;;;;5030912;28;20098;-81
2021/09/17 01:45:26;;;;;;;10.00;8.98;;;19.40;1.00;;;;;;5028872;28;20041;-82
2021/09/17 01:47:52;;;;;;;10.57;9.52;;;19.40;1.00;;;;;;5030768;28;20034;-82
2021/09/17 01:50:17;;;;;;;13.25;10.27;;;19.40;1.00;;;;;;5030592;28;20033;-81
2021/09/17 01:52:44;;;;;;;10.65;9.13;;;19.30;1.00;;;;;;5032756;28;20484;-82
2021/09/17 01:55:11;;;;;;;10.15;8.65;;;19.40;1.00;;;;;;5031297;28;20037;-82
2021/09/17 01:57:36;;;;;;;9.90;9.00;;;19.40;1.00;;;;;;5030271;28;20473;-81
2021/09/17 02:00:06;;;;;;;11.10;8.43;;;19.40;1.00;;;;;;5030012;28;20556;-81
2021/09/17 02:02:32;;;;;;;10.50;8.75;;;19.40;1.00;;;;;;5030401;28;20014;-81
2021/09/17 02:04:58;;;;;;;11.80;8.65;;;19.40;1.00;;;;;;5029219;28;20397;-82
2021/09/17 02:07:24;;;;;;;10.50;8.35;;;19.30;1.00;;;;;;5030780;28;20028;-81
2021/09/17 02:09:50;;;;;;;10.20;9.07;;;19.40;1.00;;;;;;5030570;28;20029;-81
2021/09/17 02:12:16;;;;;;;8.70;7.90;;;19.50;1.00;;;;;;5030124;28;20037;-81
2021/09/17 02:14:41;;;;;;;9.02;8.13;;;19.50;1.00;;;;;;5044868;28;20041;-81
2021/09/17 02:17:08;;;;;;;11.00;8.18;;;19.60;1.00;;;;;;5049667;28;20508;-81
2021/09/17 02:19:34;;;;;;;9.45;8.52;;;19.60;1.00;;;;;;5051428;28;20388;-81
2021/09/17 02:22:00;;;;;;;8.95;8.15;;;19.50;1.00;;;;;;5049975;28;20112;-81
2021/09/17 02:24:25;;;;;;;12.23;8.70;;;19.60;1.00;;;;;;5050161;28;20440;-81
2021/09/17 02:26:52;;;;;;;10.48;8.27;;;19.60;1.00;;;;;;5050073;28;20025;-81
2021/09/17 02:29:17;;;;;;;10.55;8.77;;;19.50;1.00;;;;;;5049444;28;20072;-82
2021/09/17 02:31:43;;;;;;;8.30;7.50;;;19.50;1.00;;;;;;5052236;28;20492;-81
2021/09/17 02:34:09;;;;;;;14.60;8.20;;;19.60;1.00;;;;;;5048607;28;20029;-82
2021/09/17 02:36:35;;;;;;;9.93;8.30;;;19.50;1.00;;;;;;5049556;28;20416;-81
2021/09/17 02:39:01;;;;;;;10.07;8.32;;;19.60;1.00;;;;;;5049733;28;20036;-81
2021/09/17 02:41:27;;;;;;;9.38;8.23;;;19.60;1.00;;;;;;5049897;28;20050;-81
2021/09/17 02:43:53;;;;;;;9.85;8.82;;;19.50;1.00;;;;;;5050373;28;20041;-81
2021/09/17 02:46:18;;;;;;;11.35;8.07;;;19.50;1.00;;;;;;5051467;28;20207;-81
2021/09/17 02:48:44;;;;;;;10.43;9.30;;;19.50;1.00;;;;;;5049518;28;20048;-81
2021/09/17 02:51:11;;;;;;;10.65;9.65;;;19.40;1.00;;;;;;5048536;28;20102;-81
2021/09/17 02:53:37;;;;;;;10.73;8.65;;;19.40;1.00;;;;;;5049313;28;20025;-82
2021/09/17 02:56:03;;;;;;;12.70;8.65;;;19.50;1.00;;;;;;5049650;28;20032;-81
2021/09/17 02:58:28;;;;;;;10.68;8.30;;;19.40;1.00;;;;;;5049566;28;20021;-81
2021/09/17 03:00:54;;;;;;;9.52;8.52;;;19.40;1.00;;;;;;5049954;28;20028;-82
2021/09/17 03:03:20;;;;;;;10.13;8.63;;;19.40;1.00;;;;;;5049234;28;20021;-82
2021/09/17 03:05:46;;;;;;;11.30;9.32;;;19.40;1.00;;;;;;5049583;28;20024;-82
2021/09/17 03:08:12;;;;;;;10.80;9.07;;;19.30;1.00;;;;;;5033771;28;20598;-81
2021/09/17 03:10:38;;;;;;;11.52;9.80;;;19.30;1.00;;;;;;5051755;28;20112;-81
2021/09/17 03:13:04;;;;;;;10.75;9.65;;;19.20;1.00;;;;;;5048759;28;20103;-81
2021/09/17 03:15:29;;;;;;;11.43;10.32;;;19.30;1.00;;;;;;5049349;28;20025;-81
2021/09/17 03:17:55;;;;;;;10.90;9.90;;;19.30;1.00;;;;;;5048947;28;20032;-81
2021/09/17 03:20:21;;;;;;;14.85;10.23;;;19.30;1.00;;;;;;5050029;28;20021;-81
2021/09/17 03:22:47;;;;;;;10.73;9.65;;;19.30;1.00;;;;;;5050449;28;20039;-82
2021/09/17 03:25:13;;;;;;;11.32;9.75;;;19.40;1.00;;;;;;5049907;28;20025;-81
2021/09/17 03:27:39;;;;;;;10.43;9.32;;;19.40;1.00;;;;;;5049357;28;20037;-81
2021/09/17 03:30:05;;;;;;;10.65;9.57;;;19.30;1.00;;;;;;5049097;28;20091;-81
2021/09/17 03:32:31;;;;;;;10.40;9.15;;;19.20;1.00;;;;;;5049281;28;20037;-82
2021/09/17 03:35:00;;;;;;;9.30;8.43;;;19.20;1.00;;;;;;5049928;28;20787;-81
2021/09/17 03:37:26;;;;;;;9.65;8.43;;;19.20;1.00;;;;;;5049445;28;20040;-81
2021/09/17 03:39:52;;;;;;;9.93;8.73;;;19.20;1.00;;;;;;5031465;28;20017;-82
2021/09/17 03:42:17;;;;;;;9.73;8.85;;;19.10;1.00;;;;;;5048671;28;20037;-82
2021/09/17 03:44:43;;;;;;;10.82;9.75;;;19.10;1.00;;;;;;5049328;28;20025;-82
2021/09/17 03:47:09;;;;;;;11.40;10.23;;;19.00;1.00;;;;;;5048961;28;20033;-82
2021/09/17 03:49:34;;;;;;;10.30;9.30;;;18.90;1.00;;;;;;5051677;28;20029;-83
2021/09/17 03:52:00;;;;;;;10.68;9.32;;;18.90;1.00;;;;;;5048408;28;20101;-81
2021/09/17 03:54:29;;;;;;;12.23;10.00;;;18.90;1.00;;;;;;5048927;28;20363;-81
2021/09/17 03:56:56;;;;;;;10.82;9.73;;;18.70;1.00;;;;;;5048032;28;20111;-81
2021/09/17 03:59:22;;;;;;;11.15;9.05;;;18.70;1.00;;;;;;5048964;28;20022;-82
2021/09/17 04:01:48;;;;;;;10.32;9.05;;;18.80;1.00;;;;;;5050336;28;20040;-81
2021/09/17 04:04:14;;;;;;;8.88;7.90;;;18.70;1.00;;;;;;5053222;28;20028;-81
2021/09/17 04:06:42;;;;;;;10.30;8.30;;;18.70;1.00;;;;;;5052614;28;20028;-81
2021/09/17 04:09:09;;;;;;;11.25;8.10;;;18.80;1.00;;;;;;5052353;28;20017;-82
2021/09/17 04:11:35;;;;;;;11.35;8.00;;;18.70;1.00;;;;;;5051999;28;20041;-81
2021/09/17 04:14:01;;;;;;;11.23;8.27;;;18.80;1.00;;;;;;5052568;28;20459;-82
2021/09/17 04:16:26;;;;;;;10.10;7.57;;;18.80;1.00;;;;;;5052846;28;20037;-81
2021/09/17 04:18:52;;;;;;;10.85;7.78;;;18.90;1.00;;;;;;5052394;28;20045;-81
2021/09/17 04:21:18;;;;;;;9.65;8.10;;;18.90;1.00;;;;;;5052448;28;20112;-81
2021/09/17 04:23:43;;;;;;;10.70;7.68;;;18.80;1.00;;;;;;5052519;28;20071;-81
2021/09/17 04:26:09;;;;;;;13.15;8.27;;;18.90;1.00;;;;;;5052150;28;20536;-81
2021/09/17 04:28:35;;;;;;;9.65;7.60;;;18.90;1.00;;;;;;5054320;28;20432;-81
2021/09/17 04:31:00;;;;;;;11.60;8.15;;;18.80;1.00;;;;;;5051956;28;20481;-81
2021/09/17 04:33:26;;;;;;;10.02;7.80;;;18.90;1.00;;;;;;5051735;28;20029;-81
2021/09/17 04:35:52;;;;;;;8.70;7.40;;;18.90;1.00;;;;;;5052100;28;20060;-81
2021/09/17 04:38:17;;;;;;;8.60;7.40;;;18.90;1.00;;;;;;5052504;28;20029;-81
2021/09/17 04:40:43;;;;;;;8.85;7.63;;;19.00;1.00;;;;;;5053656;28;20025;-81
2021/09/17 04:43:09;;;;;;;8.57;7.63;;;19.00;1.00;;;;;;5051592;28;20509;-81
2021/09/17 04:45:35;;;;;;;10.32;8.05;;;19.00;1.00;;;;;;5052023;28;20029;-81
2021/09/17 04:48:14;;;;;;;9.30;7.78;;;19.00;1.00;;;;;;5051880;28;20021;-81
2021/09/17 04:50:41;;;;;;;10.32;8.00;;;19.00;1.00;;;;;;5051611;28;20033;-81
2021/09/17 04:53:07;;;;;;;9.75;8.25;;;19.00;1.00;;;;;;5051164;28;20014;-81
2021/09/17 04:55:34;;;;;;;9.05;8.25;;;18.90;1.00;;;;;;5052430;28;20033;-81
2021/09/17 04:58:07;;;;;;;13.43;8.43;;;18.90;1.00;;;;;;5051528;28;20520;-81
2021/09/17 05:00:34;;;;;;;9.75;8.07;;;19.00;1.00;;;;;;5051489;28;20052;-81
2021/09/17 05:03:00;;;;;;;15.85;8.93;;;19.00;1.00;;;;;;5051736;28;20028;-82
2021/09/17 05:05:26;;;;;;;13.05;8.63;;;18.90;1.00;;;;;;5051251;28;20017;-81
2021/09/17 05:07:52;;;;;;;12.77;9.40;;;18.80;1.00;;;;;;5052619;28;20036;-81
2021/09/17 05:10:19;;;;;;;12.60;9.45;;;18.80;1.00;;;;;;5051976;28;20467;-82
2021/09/17 05:12:44;;;;;;;11.27;9.32;;;18.70;1.00;;;;;;5050928;28;20498;-82
2021/09/17 05:15:11;;;;;;;13.35;9.50;;;18.80;1.00;;;;;;5050022;28;20057;-81
2021/09/17 05:17:37;;;;;;;10.55;9.07;;;18.80;1.00;;;;;;5051257;28;20516;-81
2021/09/17 05:20:03;;;;;;;9.63;8.63;;;18.80;1.00;;;;;;5051477;28;20028;-81
2021/09/17 05:22:29;;;;;;;12.38;9.20;;;18.80;1.00;;;;;;5053027;28;20029;-81
2021/09/17 05:24:55;;;;;;;12.13;8.77;;;18.90;1.00;;;;;;5051068;28;20028;-83
2021/09/17 05:27:21;;;;;;;10.60;9.10;;;19.00;1.00;;;;;;5050648;28;20524;-81
2021/09/17 05:29:47;;;;;;;11.75;9.07;;;19.00;1.00;;;;;;5051263;28;20092;-81
2021/09/17 05:32:13;;;;;;;10.80;9.70;;;19.10;1.00;;;;;;5016266;28;20025;-81
2021/09/17 05:34:38;;;;;;;11.13;9.90;;;19.10;1.00;;;;;;5052025;28;20113;-81
2021/09/17 05:37:04;;;;;;;12.05;10.45;;;19.00;1.00;;;;;;5050709;28;20112;-82
2021/09/17 05:39:30;;;;;;;13.27;9.95;;;19.00;1.00;;;;;;5050399;28;20440;-81
2021/09/17 05:41:56;;;;;;;11.38;9.80;;;18.90;1.00;;;;;;5050901;28;20029;-82
2021/09/17 05:44:26;;;;;;;11.00;9.90;;;18.80;1.00;;;;;;5050516;28;20020;-83
2021/09/17 05:46:54;;;;;;;12.55;9.50;;;18.80;1.00;;;;;;5051219;28;20042;-81
2021/09/17 05:49:22;;;;;;;10.50;9.40;;;18.80;1.00;;;;;;5051599;28;20025;-81
2021/09/17 05:51:49;;;;;;;13.15;10.45;;;18.80;1.00;;;;;;5032171;28;20061;-81
2021/09/17 05:54:15;;;;;;;13.32;11.20;;;18.80;1.00;;;;;;5050075;28;20063;-81
2021/09/17 05:56:41;;;;;;;12.77;11.48;;;18.70;1.00;;;;;;5050188;28;20029;-81
2021/09/17 05:59:06;;;;;;;14.32;12.27;;;18.60;1.00;;;;;;5050266;28;20070;-79
2021/09/17 06:01:32;;;;;;;13.90;12.38;;;18.70;1.00;;;;;;5052667;28;20397;-80
2021/09/17 06:03:58;;;;;;;19.75;11.85;;;18.70;1.00;;;;;;5049890;28;20111;-80
2021/09/17 06:06:23;;;;;;;15.38;13.30;;;18.80;1.00;;;;;;5049858;28;20029;-79
2021/09/17 06:08:50;;;;;;;14.65;13.15;;;18.70;1.00;;;;;;5050504;28;20058;-82
2021/09/17 06:11:19;;;;;;;18.33;14.65;;;18.70;1.00;;;;;;5042099;28;20041;-81
2021/09/17 06:13:45;;;;;;;15.27;13.32;;;18.80;1.00;;;;;;5048086;28;20036;-80
2021/09/17 06:16:11;;;;;;;16.75;13.23;;;18.80;1.00;;;;;;5050403;28;20043;-80
2021/09/17 06:18:37;;;;;;;15.43;13.75;;;18.80;1.00;;;;;;5050268;28;20020;-81
2021/09/17 06:21:03;;;;;;;14.38;12.70;;;18.90;1.00;;;;;;5049580;28;20033;-81
2021/09/17 06:23:28;;;;;;;14.68;13.10;;;18.80;1.00;;;;;;5050281;28;20052;-80
2021/09/17 06:25:56;;;;;;;14.00;12.60;;;18.90;1.00;;;;;;5050774;28;20386;-80
2021/09/17 06:28:23;;;;;;;15.23;13.63;;;18.70;1.00;;;;;;5048801;28;20060;-80
2021/09/17 06:30:49;;;;;;;16.77;12.13;;;18.80;1.00;;;;;;5040561;28;20477;-80
2021/09/17 06:33:14;;;;;;;16.50;11.70;;;18.90;1.00;;;;;;5054419;28;20122;-81
2021/09/17 06:35:40;;;;;;;16.35;11.57;;;18.80;1.00;;;;;;5048695;28;20028;-80
2021/09/17 06:38:05;;;;;;;13.77;11.80;;;18.60;1.00;;;;;;5048624;28;20044;-80
2021/09/17 06:40:31;;;;;;;13.65;12.10;;;18.70;1.00;;;;;;5046981;28;20025;-80
2021/09/17 06:42:57;;;;;;;13.63;12.20;;;18.80;1.00;;;;;;5027943;28;20063;-82
2021/09/17 06:45:23;;;;;;;13.68;12.15;;;18.80;1.00;;;;;;5035844;28;20446;-81
2021/09/17 06:47:54;;;;;;;12.10;10.85;;;18.80;1.00;;;;;;5037835;28;20860;-80
2021/09/17 06:50:21;;;;;;;14.25;12.63;;;18.90;1.00;;;;;;5063608;28;20283;-80
2021/09/17 06:52:48;;;;;;;16.48;11.25;;;18.90;1.00;;;;;;5053888;28;20041;-80
2021/09/17 06:55:15;;;;;;;15.30;11.88;;;18.80;1.00;;;;;;5052321;28;20432;-80
2021/09/17 06:57:52;;;;;;;13.63;11.68;;;18.70;1.00;;;;;;5053472;28;20025;-80
2021/09/17 07:00:20;;;;;;;27.20;13.50;;;18.70;1.00;;;;;;5053842;28;20071;-80
2021/09/17 07:02:46;;;;;;;17.10;12.30;;;18.70;1.00;;;;;;5053472;28;20029;-80
2021/09/17 07:05:12;;;;;;;14.27;10.95;;;18.70;1.00;;;;;;5049196;28;20509;-80
2021/09/17 07:07:39;;;;;;;12.88;11.00;;;18.80;1.00;;;;;;5055487;28;20512;-79
2021/09/17 07:10:07;;;;;;;13.23;11.90;;;18.90;1.00;;;;;;5053245;28;20048;-79
2021/09/17 07:12:33;;;;;;;12.48;11.00;;;18.80;1.00;;;;;;5053269;28;20489;-79
2021/09/17 07:14:59;;;;;;;13.60;12.20;;;18.80;1.00;;;;;;5053253;28;20040;-80
2021/09/17 07:17:24;;;;;;;12.27;10.98;;;18.60;1.00;;;;;;5050293;28;20031;-79
2021/09/17 07:19:50;;;;;;;12.50;11.38;;;18.60;1.00;;;;;;5053336;28;20385;-79
2021/09/17 07:22:16;;;;;;;11.80;10.60;;;18.60;1.00;;;;;;5054809;28;20075;-79
2021/09/17 07:24:42;;;;;;;12.80;10.80;;;18.60;1.00;;;;;;5048722;28;20047;-79
2021/09/17 07:27:08;;;;;;;11.63;10.20;;;18.70;1.00;;;;;;5048939;28;20047;-79
2021/09/17 07:29:35;;;;;;;14.88;11.68;;;18.80;1.00;;;;;;5047477;28;20096;-79
2021/09/17 07:32:00;;;;;;;11.88;10.68;;;18.70;1.00;;;;;;5050017;28;20119;-79
2021/09/17 07:34:26;;;;;;;11.63;10.05;;;18.80;1.00;;;;;;5050702;28;20060;-79
2021/09/17 07:36:52;;;;;;;12.60;10.40;;;19.00;1.00;;;;;;5050267;28;20032;-79
2021/09/17 07:39:18;;;;;;;11.80;10.50;;;19.20;1.00;;;;;;5052857;28;20032;-79
2021/09/17 07:41:43;;;;;;;11.85;10.52;;;19.20;1.00;;;;;;5052610;28;20051;-79
2021/09/17 07:44:09;;;;;;;12.18;10.68;;;19.20;1.00;;;;;;5052477;28;20051;-80
2021/09/17 07:46:35;;;;;;;12.05;10.85;;;19.00;1.00;;;;;;5055336;28;20044;-80
2021/09/17 07:49:00;;;;;;;11.70;10.48;;;19.00;1.00;;;;;;5053069;28;20053;-82
2021/09/17 07:51:26;;;;;;;11.77;10.57;;;19.00;1.00;;;;;;5052402;28;20067;-82
2021/09/17 07:53:52;;;;;;;10.80;9.75;;;19.00;1.00;;;;;;5052759;28;20139;-81
2021/09/17 07:56:18;;;;;;;10.55;9.48;;;19.00;1.00;;;;;;5053424;28;20370;-79
2021/09/17 07:58:43;;;;;;;10.88;9.70;;;19.00;1.00;;;;;;5055253;28;20025;-81
2021/09/17 08:01:09;;;;;;;12.50;9.70;;;19.10;1.00;;;;;;5051950;28;20029;-81
2021/09/17 08:03:35;;;;;;;9.95;8.73;;;19.10;1.00;;;;;;5034218;28;20029;-81
2021/09/17 08:06:01;;;;;;;10.82;8.95;;;19.30;1.00;;;;;;5052180;28;20025;-81
2021/09/17 08:08:27;;;;;;;10.07;9.02;;;19.40;1.00;;;;;;5051146;28;20029;-81
2021/09/17 08:10:54;;;;;;;10.55;9.55;;;19.70;1.00;;;;;;5042325;28;20030;-81
2021/09/17 08:13:19;;;;;;;11.27;10.10;;;19.70;1.00;;;;;;5053459;28;20045;-81
2021/09/17 08:15:45;;;;;;;10.35;9.20;;;19.60;1.00;;;;;;5052222;28;20032;-81
2021/09/17 08:18:11;;;;;;;11.88;10.68;;;19.50;1.00;;;;;;5052082;28;20135;-81
2021/09/17 08:20:40;;;;;;;14.27;12.27;;;19.50;1.00;;;;;;5052228;28;20401;-81
2021/09/17 08:23:06;;;;;;;12.68;11.48;;;19.40;1.00;;;;;;5052156;28;20038;-81
2021/09/17 08:25:32;;;;;;;15.55;11.48;;;19.20;1.00;;;;;;5054410;28;20021;-81
2021/09/17 08:27:58;;;;;;;13.50;11.60;;;19.10;1.00;;;;;;5052002;28;20025;-81
2021/09/17 08:30:23;;;;;;;13.73;10.98;;;19.50;1.00;;;;;;5051629;28;20032;-81
2021/09/17 08:32:49;;;;;;;17.42;11.18;;;20.00;1.00;;;;;;5051183;28;20128;-81
2021/09/17 08:35:15;;;;;;;15.00;11.40;;;20.00;1.00;;;;;;5051729;28;20386;-82
2021/09/17 08:37:40;;;;;;;12.02;10.82;;;20.20;1.00;;;;;;5053889;28;20439;-81
2021/09/17 08:40:07;;;;;;;12.57;10.70;;;20.10;1.00;;;;;;5052077;28;20448;-81
2021/09/17 08:42:33;;;;;;;11.38;9.65;;;20.30;1.00;;;;;;5051298;28;20116;-81
2021/09/17 08:45:00;;;;;;;9.45;8.52;;;20.80;1.00;;;;;;5051540;28;20143;-81
2021/09/17 08:47:26;;;;;;;12.70;9.07;;;21.10;1.00;;;;;;5049666;28;20033;-81
2021/09/17 08:49:52;;;;;;;11.98;9.80;;;21.10;1.00;;;;;;5051752;28;20025;-81
2021/09/17 08:52:17;;;;;;;11.88;9.82;;;20.80;1.00;;;;;;5052634;28;20137;-81
2021/09/17 08:54:43;;;;;;;11.38;9.77;;;20.70;1.00;;;;;;5051326;28;20055;-81
2021/09/17 08:57:09;;;;;;;9.35;8.45;;;21.40;1.00;;;;;;5051599;28;20044;-81
2021/09/17 08:59:35;;;;;;;8.95;8.10;;;22.50;1.00;;;;;;5051726;28;20025;-81
2021/09/17 09:02:23;;;;;;;8.77;7.78;;;22.50;1.00;;;;;;5051013;28;20013;-81
2021/09/17 09:04:57;;;;;;;8.25;7.45;;;22.40;1.00;;;;;;5049692;28;20025;-81
2021/09/17 09:07:40;;;;;;;8.30;7.25;;;21.60;1.00;;;;;;5053196;28;20021;-81
2021/09/17 09:10:14;;;;;;;7.65;6.13;;;21.70;1.00;;;;;;5051054;28;20079;-81
2021/09/17 09:12:45;;;;;;;6.95;6.35;;;23.10;1.00;;;;;;5051019;28;20544;-81
2021/09/17 09:15:19;;;;;;;7.15;5.95;;;24.60;1.00;;;;;;5050606;28;20037;-81
2021/09/17 09:17:47;;;;;;;6.35;5.85;;;26.40;1.00;;;;;;5051045;28;20029;-81
2021/09/17 09:20:24;;;;;;;6.82;6.20;;;24.90;1.00;;;;;;5052207;28;20029;-81
2021/09/17 09:26:11;;;;;;;6.60;6.00;;;23.20;1.00;;;;;;5050208;28;20036;-82
2021/09/17 09:45:27;;;;;;;4.22;3.80;;;36.20;99.90;;;;;;5050047;28;20036;-80
2021/09/17 09:47:57;;;;;;;4.50;4.10;;;35.10;99.90;;;;;;5050415;28;20029;-80
2021/09/17 09:50:29;;;;;;;3.95;3.55;;;32.00;99.90;;;;;;5050410;28;20036;-80
2021/09/17 09:52:57;;;;;;;4.05;3.72;;;29.40;99.90;;;;;;5051150;28;20456;-80
2021/09/17 09:55:23;;;;;;;4.53;4.20;;;32.50;99.90;;;;;;5052108;28;20013;-80
2021/09/17 09:57:49;;;;;;;5.85;4.00;;;30.90;99.90;;;;;;5050368;28;20397;-83
2021/09/17 10:00:15;;;;;;;5.68;3.78;;;34.70;99.90;;;;;;5049730;28;20070;-80
2021/09/17 10:02:43;;;;;;;3.33;3.03;;;38.80;99.90;;;;;;5050006;28;20190;-81
2021/09/17 10:05:12;;;;;;;3.40;3.10;;;40.80;99.90;;;;;;5050217;28;20025;-81
2021/09/17 10:07:39;;;;;;;4.30;3.40;;;41.90;99.90;;;;;;5052050;28;20025;-81
2021/09/17 10:10:07;;;;;;;4.82;3.03;;;42.60;99.90;;;;;;5049926;28;20053;-81
2021/09/17 10:12:33;;;;;;;4.00;3.58;;;41.80;99.90;;;;;;5049740;28;20029;-81
2021/09/17 10:14:59;;;;;;;3.80;3.08;;;37.60;99.90;;;;;;5032156;28;20086;-81
2021/09/17 10:17:30;;;;;;;4.30;3.90;;;39.90;99.90;;;;;;5049796;28;20119;-81
2021/09/17 10:19:58;;;;;;;4.55;3.70;;;38.80;99.90;;;;;;5050738;28;20127;-81
2021/09/17 10:22:40;;;;;;;3.80;3.50;;;40.00;99.90;;;;;;5051809;28;20029;-81
2021/09/17 10:25:11;;;;;;;5.32;3.47;;;39.20;99.90;;;;;;5049600;28;20035;-81
2021/09/17 10:27:39;;;;;;;4.20;3.10;;;37.00;99.90;;;;;;5049733;28;20021;-81
2021/09/17 10:30:11;;;;;;;7.07;3.63;;;36.20;99.90;;;;;;5049348;28;20520;-80
2021/09/17 10:32:49;;;;;;;3.33;3.10;;;38.70;99.90;;;;;;5049760;28;20025;-81
2021/09/17 10:35:19;;;;;;;3.33;3.03;;;38.30;99.90;;;;;;5034128;28;20009;-81
2021/09/17 10:37:59;;;;;;;3.50;3.20;;;39.80;99.90;;;;;;5048279;28;20028;-81
2021/09/17 10:40:41;;;;;;;4.00;3.10;;;42.10;99.90;;;;;;5049675;28;20021;-81
2021/09/17 10:43:10;;;;;;;3.40;3.10;;;43.30;99.90;;;;;;5049209;28;20013;-81
2021/09/17 10:45:50;;;;;;;3.63;3.05;;;43.50;99.90;;;;;;5047886;28;20025;-81
2021/09/17 10:48:19;;;;;;;3.83;3.22;;;41.80;99.90;;;;;;5049534;28;20024;-81
2021/09/17 10:50:52;;;;;;;3.40;3.15;;;38.30;99.90;;;;;;5049416;28;20455;-81
2021/09/17 10:53:40;;;;;;;2.97;2.70;;;41.30;99.90;;;;;;5034305;28;20097;-81
2021/09/17 10:56:13;;;;;;;2.70;2.50;;;41.40;99.90;;;;;;5049096;28;20040;-81
2021/09/17 10:58:41;;;;;;;3.30;3.00;;;38.20;99.90;;;;;;5051302;28;20112;-81
2021/09/17 11:01:12;;;;;;;3.05;2.80;;;33.80;99.90;;;;;;5048355;28;20021;-82
2021/09/17 11:03:45;;;;;;;4.18;2.95;;;33.40;99.90;;;;;;5048887;28;20454;-81
2021/09/17 11:08:48;;;;;;;3.28;2.60;;;37.60;99.90;;;;;;5049732;28;20571;-81
2021/09/17 11:11:33;;;;;;;3.00;2.70;;;41.80;99.90;;;;;;5033586;28;20029;-81
2021/09/17 11:14:02;;;;;;;6.95;2.80;;;43.30;99.90;;;;;;5051193;28;20249;-81
2021/09/17 11:16:29;;;;;;;5.78;2.55;;;44.90;99.90;;;;;;5053433;28;20121;-81
2021/09/17 11:19:17;;;;;;;2.60;2.40;;;44.60;99.90;;;;;;5053262;28;20025;-81
2021/09/17 11:21:45;;;;;;;2.60;2.40;;;44.10;99.90;;;;;;5053769;28;20037;-81
2021/09/17 11:24:28;;;;;;;2.65;2.33;;;40.30;99.90;;;;;;5051272;28;20071;-82
2021/09/17 11:26:56;;;;;;;4.03;2.25;;;42.50;99.90;;;;;;5052908;28;20033;-81
2021/09/17 11:29:24;;;;;;;2.72;2.40;;;44.60;99.90;;;;;;5053023;28;20400;-81
2021/09/17 11:31:51;;;;;;;4.82;2.30;;;44.70;99.90;;;;;;5054725;28;20090;-81
2021/09/17 11:34:20;;;;;;;2.30;2.10;;;44.50;99.90;;;;;;5054077;28;20029;-82
2021/09/17 11:37:03;;;;;;;2.50;2.30;;;45.10;99.90;;;;;;5052796;28;20028;-82
2021/09/17 11:39:36;;;;;;;2.70;2.30;;;45.90;99.90;;;;;;5052740;28;20025;-82
2021/09/17 11:42:07;;;;;;;2.30;2.20;;;44.90;99.90;;;;;;5052678;28;20037;-82
2021/09/17 11:44:37;;;;;;;2.60;2.40;;;41.50;99.90;;;;;;5053322;28;20021;-81
2021/09/17 11:47:14;;;;;;;2.50;2.30;;;36.60;99.90;;;;;;5052871;28;20389;-82
2021/09/17 11:49:44;;;;;;;4.40;2.50;;;39.10;99.90;;;;;;5054834;28;20047;-82
2021/09/17 11:52:20;;;;;;;2.30;2.20;;;42.20;99.90;;;;;;5051215;28;20052;-81
2021/09/17 11:55:01;;;;;;;3.15;2.53;;;37.20;99.90;;;;;;5053031;28;20477;-81
2021/09/17 11:57:31;;;;;;;3.17;2.30;;;34.00;99.90;;;;;;5053136;28;20036;-81
2021/09/17 11:59:57;;;;;;;3.38;2.38;;;32.00;99.90;;;;;;5052560;28;20013;-81
2021/09/17 12:02:25;;;;;;;4.10;2.45;;;38.20;99.90;;;;;;5050997;28;20036;-81
2021/09/17 12:05:01;;;;;;;3.03;2.40;;;41.80;99.90;;;;;;5053878;28;20044;-81
2021/09/17 12:07:28;;;;;;;2.88;2.20;;;40.00;99.90;;;;;;5052698;28;20036;-82
2021/09/17 12:09:55;;;;;;;2.65;2.40;;;38.90;99.90;;;;;;5052302;28;20108;-82
2021/09/17 12:12:32;;;;;;;2.83;2.63;;;40.40;99.90;;;;;;5052680;28;20055;-82
2021/09/17 12:14:57;;;;;;;2.72;2.20;;;42.10;99.90;;;;;;5052008;28;20136;-82
2021/09/17 12:17:24;;;;;;;2.20;2.05;;;43.80;99.90;;;;;;5052597;28;20107;-82
2021/09/17 12:20:03;;;;;;;2.20;2.00;;;43.20;99.90;;;;;;5053587;28;20430;-82
2021/09/17 12:22:43;;;;;;;2.28;2.05;;;42.50;99.90;;;;;;5052482;28;20032;-81
2021/09/17 12:25:26;;;;;;;2.28;1.90;;;42.70;99.90;;;;;;5051961;28;20033;-82
2021/09/17 12:28:01;;;;;;;2.60;2.20;;;41.60;99.90;;;;;;5052011;28;20025;-81
2021/09/17 12:30:32;;;;;;;3.83;2.33;;;39.30;99.90;;;;;;5034398;28;20036;-81
2021/09/17 12:33:22;;;;;;;2.65;2.00;;;38.70;99.90;;;;;;5035061;28;20120;-82
2021/09/17 12:35:54;;;;;;;5.90;2.60;;;42.30;99.90;;;;;;5051944;28;20033;-82
2021/09/17 12:38:23;;;;;;;2.22;2.10;;;40.80;99.90;;;;;;5034177;28;20082;-82
2021/09/17 12:40:55;;;;;;;2.17;2.08;;;41.80;99.90;;;;;;5053034;28;20854;-82
2021/09/17 12:43:29;;;;;;;2.53;2.00;;;41.90;99.90;;;;;;5053427;28;20032;-81
2021/09/17 12:45:57;;;;;;;3.47;2.10;;;42.10;99.90;;;;;;5052219;28;20029;-82
2021/09/17 12:48:25;;;;;;;2.55;2.05;;;42.20;99.90;;;;;;5051530;28;20025;-82
2021/09/17 12:50:51;;;;;;;3.22;2.10;;;41.50;99.90;;;;;;5051499;28;20036;-81
2021/09/17 12:53:20;;;;;;;5.68;2.33;;;39.80;99.90;;;;;;5051226;28;20029;-82
2021/09/17 12:55:48;;;;;;;3.28;2.33;;;40.40;99.90;;;;;;5053898;28;20025;-82
2021/09/17 12:58:23;;;;;;;2.53;2.00;;;41.10;99.90;;;;;;5050908;28;20090;-81
2021/09/17 13:00:50;;;;;;;2.97;2.17;;;42.10;99.90;;;;;;5051850;28;20119;-82
2021/09/17 13:03:19;;;;;;;3.35;2.30;;;41.80;99.90;;;;;;5051039;28;20036;-82
2021/09/17 13:05:49;;;;;;;2.60;2.08;;;40.30;99.90;;;;;;5051843;28;20464;-82
2021/09/17 13:08:15;;;;;;;2.22;2.08;;;39.40;99.90;;;;;;5036590;28;20507;-82
2021/09/17 13:10:41;;;;;;;2.13;1.83;;;37.90;99.90;;;;;;5049035;28;20033;-82